createdAt,value
2023-02-03T00:02:46.131Z,100297.1
2023-02-03T00:08:21.637Z,100291.1
2023-02-03T00:13:56.920Z,100290.2
2023-02-03T00:19:39.067Z,100288.5
2023-02-03T00:25:14.167Z,100289.2
2023-02-03T00:30:49.484Z,100290.7
2023-02-03T00:36:24.489Z,100292.9
2023-02-03T00:41:59.631Z,100293.6
2023-02-03T00:47:35.149Z,100286.7
2023-02-03T00:53:11.261Z,100293.8
2023-02-03T00:58:46.168Z,100289.5
2023-02-03T01:04:21.124Z,100289
2023-02-03T01:10:03.462Z,100288.6
2023-02-03T01:15:39.407Z,100290.1
2023-02-03T01:21:36.216Z,100291.1
2023-02-03T01:27:11.574Z,100289.7
2023-02-03T01:32:47.737Z,100292.1
2023-02-03T01:38:28.512Z,100297.2
2023-02-03T01:44:04.292Z,100297
2023-02-03T01:49:42.588Z,100295.9
2023-02-03T01:55:21.816Z,100293.5
2023-02-03T02:00:58.859Z,100290.3
2023-02-03T02:06:34.605Z,100293.5
2023-02-03T02:12:15.310Z,100285.8
2023-02-03T02:17:50.419Z,100289.7
2023-02-03T02:23:25.256Z,100286.2
2023-02-03T02:29:05.726Z,100289.3
2023-02-03T02:34:51.170Z,100282.3
2023-02-03T02:40:34.159Z,100278.4
2023-02-03T02:46:15.411Z,100274.7
2023-02-03T02:52:02.765Z,100277.6
2023-02-03T02:57:55.725Z,100272.9
2023-02-03T03:03:41.164Z,100271.1
2023-02-03T03:09:16.525Z,100270.7
2023-02-03T03:14:51.201Z,100270.2
2023-02-03T03:20:31.007Z,100280.2
2023-02-03T03:26:05.869Z,100277.8
2023-02-03T03:31:42.031Z,100276.6
2023-02-03T03:37:19.153Z,100278.7
2023-02-03T03:42:55.299Z,100280.1
2023-02-03T03:48:33.524Z,100275.8
2023-02-03T03:54:31.518Z,100276.1
2023-02-03T04:00:06.904Z,100277.2
2023-02-03T04:05:46.991Z,100281.3
2023-02-03T04:11:33.228Z,100282.1
2023-02-03T04:17:08.705Z,100293.3
2023-02-03T04:22:45.707Z,100300.5
2023-02-03T04:28:21.743Z,100298.6
2023-02-03T04:33:59.427Z,100301.5
2023-02-03T04:39:36.823Z,100305.2
2023-02-03T04:45:14.052Z,100305.6
2023-02-03T04:50:49.470Z,100307.1
2023-02-03T04:56:24.148Z,100308.8
2023-02-03T05:01:58.846Z,100314.8
2023-02-03T05:07:34.432Z,100308.8
2023-02-03T05:13:21.469Z,100299.7
2023-02-03T05:19:03.786Z,100299.4
2023-02-03T05:25:00.957Z,100302.5
2023-02-03T05:31:00.008Z,100302.6
2023-02-03T05:36:37.699Z,100308.7
2023-02-03T05:42:12.655Z,100304.6
2023-02-03T05:47:47.229Z,100303.1
2023-02-03T05:53:22.157Z,100305.5
2023-02-03T05:58:57.091Z,100303.5
2023-02-03T06:04:33.515Z,100301.5
2023-02-03T06:10:33.271Z,100299
2023-02-03T06:16:08.689Z,100296.7
2023-02-03T06:21:43.431Z,100299
2023-02-03T06:27:21.803Z,100297.8
2023-02-03T06:33:01.440Z,100292.1
2023-02-03T06:38:37.626Z,100291.3
2023-02-03T06:44:15.274Z,100285.5
2023-02-03T06:49:50.164Z,100287.8
2023-02-03T06:55:25.613Z,100291.7
2023-02-03T07:01:01.674Z,100293
2023-02-03T07:06:36.781Z,100304.1
2023-02-03T07:12:34.053Z,100302.1
2023-02-03T07:18:48.540Z,100295.8
2023-02-03T07:24:24.727Z,100301.7
2023-02-03T07:30:02.755Z,100306.3
2023-02-03T07:35:48.530Z,100304.1
2023-02-03T07:41:34.283Z,100305.2
2023-02-03T07:47:13.133Z,100314.3
2023-02-03T07:53:16.386Z,100316.5
2023-02-03T07:58:59.931Z,100320.5
2023-02-03T08:05:03.585Z,100330.7
2023-02-03T08:10:41.704Z,100327.1
2023-02-03T08:16:22.212Z,100333.5
2023-02-03T08:21:57.632Z,100336.8
2023-02-03T08:27:34.181Z,100337.3
2023-02-03T08:33:12.462Z,100340.3
2023-02-03T08:38:47.702Z,100338.6
2023-02-03T08:44:29.061Z,100340.7
2023-02-03T08:50:23.454Z,100339.2
2023-02-03T08:56:05.823Z,100340
2023-02-03T09:01:45.263Z,100343
2023-02-03T09:07:41.832Z,100344.3
2023-02-03T09:13:17.518Z,100358.6
2023-02-03T09:18:52.870Z,100351
2023-02-03T09:24:28.874Z,100355.8
2023-02-03T09:30:04.335Z,100364.8
2023-02-03T09:35:40.073Z,100370.1
2023-02-03T09:41:15.629Z,100375.9
2023-02-03T09:47:14.127Z,100383.3
2023-02-03T09:52:47.775Z,100393.4
2023-02-03T09:58:23.870Z,100399.2
2023-02-03T10:04:00.551Z,100404.6
2023-02-03T10:09:37.489Z,100408.3
2023-02-03T10:15:25.360Z,100413.6
2023-02-03T10:21:43.015Z,100422.5
2023-02-03T10:27:26.017Z,100428.1
2023-02-03T10:33:14.528Z,100428.6
2023-02-03T10:38:49.244Z,100430.5
2023-02-03T10:44:31.038Z,100434
2023-02-03T10:50:06.746Z,100436.9
2023-02-03T10:55:51.494Z,100440.3
2023-02-03T11:01:45.943Z,100439.9
2023-02-03T11:07:22.061Z,100442.8
2023-02-03T11:12:57.192Z,100437.5
2023-02-03T11:18:53.578Z,100432
2023-02-03T11:24:29.031Z,100418.8
2023-02-03T11:30:19.131Z,100415
2023-02-03T11:36:10.112Z,100422.6
2023-02-03T11:41:58.796Z,100406.2
2023-02-03T11:47:59.452Z,100399.1
2023-02-03T11:53:57.751Z,100392.5
2023-02-03T11:59:36.675Z,100382.7
2023-02-03T12:05:27.847Z,100372.7
2023-02-03T12:11:03.586Z,100366.6
2023-02-03T12:16:40.320Z,100360.9
2023-02-03T12:22:16.552Z,100344.4
2023-02-03T12:28:00.647Z,100339.3
2023-02-03T12:33:37.395Z,100328.9
2023-02-03T12:39:13.072Z,100329.8
2023-02-03T12:44:48.546Z,100317.2
2023-02-03T12:50:24.304Z,100300.6
2023-02-03T12:56:04.681Z,100299.3
2023-02-03T13:01:57.676Z,100301.1
2023-02-03T13:07:44.175Z,100284.7
2023-02-03T13:13:28.123Z,100280.3
2023-02-03T13:19:04.994Z,100276.7
2023-02-03T13:24:40.425Z,100274
2023-02-03T13:30:20.788Z,100264.4
2023-02-03T13:35:55.955Z,100257.7
2023-02-03T13:41:46.386Z,100255.2
2023-02-03T13:47:21.962Z,100241.8
2023-02-03T13:52:57.957Z,100246
2023-02-03T13:58:41.835Z,100251.5
2023-02-03T14:04:17.683Z,100246.5
2023-02-03T14:09:53.670Z,100243.2
2023-02-03T14:16:11.865Z,100242.7
2023-02-03T14:21:47.438Z,100245.8
2023-02-03T14:27:22.697Z,100238.5
2023-02-03T14:33:10.311Z,100240.6
2023-02-03T14:38:59.563Z,100237.2
2023-02-03T14:44:36.211Z,100231.8
2023-02-03T14:50:20.771Z,100240.4
2023-02-03T14:55:56.444Z,100236.9
2023-02-03T15:01:39.566Z,100239.5
2023-02-03T15:07:16.667Z,100241.8
2023-02-03T15:12:51.613Z,100243.4
2023-02-03T15:18:27.007Z,100242.1
2023-02-03T15:24:02.793Z,100251.8
2023-02-03T15:29:42.974Z,100259.6
2023-02-03T15:35:18.177Z,100258
2023-02-03T15:41:11.154Z,100263.7
2023-02-03T15:46:47.887Z,100269.9
2023-02-03T15:52:24.530Z,100265.2
2023-02-03T15:57:59.869Z,100270.6
2023-02-03T16:03:42.668Z,100267.4
2023-02-03T16:09:18.323Z,100262.9
2023-02-03T16:14:57.318Z,100274.2
2023-02-03T16:20:36.081Z,100274
2023-02-03T16:26:14.545Z,100281.7
2023-02-03T16:31:50.028Z,100284.4
2023-02-03T16:37:29.169Z,100286.5
2023-02-03T16:43:06.049Z,100288.4
2023-02-03T16:48:40.881Z,100290.9
2023-02-03T16:54:21.237Z,100291.5
2023-02-03T17:00:07.633Z,100294.4
2023-02-03T17:05:59.251Z,100290.7
2023-02-03T17:11:35.596Z,100295.5
2023-02-03T17:17:10.626Z,100306.7
2023-02-03T17:22:45.964Z,100310.1
2023-02-03T17:28:20.952Z,100322.3
2023-02-03T17:33:57.943Z,100324.7
2023-02-03T17:54:25.472Z,100353.7
2023-02-03T18:00:00.546Z,100360.5
2023-02-03T18:05:35.571Z,100370.8
2023-02-03T18:11:12.119Z,100389.2
2023-02-03T18:16:50.143Z,100394.4
2023-02-03T18:22:30.214Z,100402.1
2023-02-03T18:28:05.424Z,100402.2
2023-02-03T18:33:41.189Z,100413.2
2023-02-03T18:39:16.950Z,100422.8
2023-02-03T18:44:51.807Z,100427.3
2023-02-03T18:50:28.880Z,100430.2
2023-02-03T18:56:06.274Z,100436
2023-02-03T19:01:47.492Z,100428.1
2023-02-03T19:07:24.283Z,100432.9
2023-02-03T19:13:03.956Z,100441.6
2023-02-03T19:18:58.278Z,100446.4
2023-02-03T19:24:40.758Z,100452.8
2023-02-03T19:30:15.905Z,100447.7
2023-02-03T19:36:00.187Z,100446.6
2023-02-03T19:41:37.458Z,100435.8
2023-02-03T19:47:34.341Z,100437.4
2023-02-03T19:53:08.666Z,100435.3
2023-02-03T19:58:43.940Z,100422
2023-02-03T20:04:19.123Z,100416.6
2023-02-03T20:09:57.680Z,100416.3
2023-02-03T20:15:45.146Z,100403.2
2023-02-03T20:21:21.583Z,100407.6
2023-02-03T20:27:00.985Z,100402.9
2023-02-03T20:32:37.203Z,100400.6
2023-02-03T20:38:24.209Z,100395.3
2023-02-03T20:44:06.983Z,100390.1
2023-02-03T20:50:00.789Z,100386.6
2023-02-03T20:56:22.298Z,100390
2023-02-03T21:02:11.898Z,100380.6
2023-02-03T21:07:47.545Z,100380.4
2023-02-03T21:13:27.826Z,100381.9
2023-02-03T21:19:04.116Z,100374.3
2023-02-03T21:24:42.642Z,100378.8
2023-02-03T21:30:23.182Z,100383.9
2023-02-03T21:36:05.812Z,100379.7
2023-02-03T21:41:41.239Z,100386.2
2023-02-03T21:47:47.213Z,100379.1
2023-02-03T21:53:19.967Z,100381.4
2023-02-03T21:59:19.514Z,100382
2023-02-03T22:05:19.190Z,100377.5
2023-02-03T22:11:00.432Z,100373.6
2023-02-03T22:16:41.546Z,100369.8
2023-02-03T22:22:18.502Z,100366.8
2023-02-03T22:27:54.871Z,100353.9
2023-02-03T22:33:30.547Z,100350.1
2023-02-03T22:39:17.271Z,100362.4
2023-02-03T22:45:13.147Z,100367.7
2023-02-03T22:50:48.375Z,100373
2023-02-03T22:56:26.626Z,100379.1
2023-02-03T23:02:02.109Z,100381.1
2023-02-03T23:07:37.171Z,100387.5
2023-02-03T23:13:12.095Z,100391.7
2023-02-03T23:18:47.414Z,100401.2
2023-02-03T23:24:22.274Z,100401.1
2023-02-03T23:30:05.945Z,100401.8
2023-02-03T23:35:48.478Z,100412.5
2023-02-03T23:41:24.961Z,100421
2023-02-03T23:47:24.728Z,100419.8
2023-02-03T23:52:58.698Z,100421.1
2023-02-03T23:58:33.921Z,100425.6
